Amber Lagoon — V7FS4 — position and weather

sailwx.info

Track history (hours):
 
Tides and Currents Weather Stations Pressure Air Temp Water Temp Dewpoint Dewpoint Depression Visibility Wind Speed Wind Dir Waves Ship Positions

Amber Lagoon

Last reported at 2017-Mar-26 02:33 UTC. Time now 2017-Mar-26 03:22 UTC.
Position N 51°17' E 004°23'.

Length 192 m; draft 8.6 m.

Type: Cargo ship. MMSI: 538090116.

Date/timePositionNaut miles runAvg speedWind from/ knotsBaromVisibWave heightAir tempDewpointWater temp
2017-Mar-26 02:33N 51°17' E 004°23'0 0.0
2017-Mar-26 01:32N 51°17' E 004°23'0 0.0
2017-Mar-26 00:32N 51°17' E 004°23'0 0.0
2017-Mar-25 23:29N 51°17' E 004°23'0 0.0
2017-Mar-25 22:32N 51°17' E 004°23'0 0.0
2017-Mar-25 21:32N 51°17' E 004°23'0 0.0
2017-Mar-25 20:32N 51°17' E 004°23'0 0.0
2017-Mar-25 19:32N 51°17' E 004°23'0 0.0
2017-Mar-25 18:29N 51°17' E 004°23'0 0.0
2017-Mar-25 17:32N 51°17' E 004°23'0 0.0
2017-Mar-25 16:32N 51°17' E 004°23'0 0.0
2017-Mar-25 15:32N 51°17' E 004°23'0 0.0
2017-Mar-25 14:32N 51°17' E 004°23'0 0.0
2017-Mar-25 13:32N 51°17' E 004°23'0 0.0
2017-Mar-25 12:32N 51°17' E 004°23'0 0.0
2017-Mar-25 11:32N 51°17' E 004°23'0 0.0
2017-Mar-25 10:32N 51°17' E 004°23'0 0.0
2017-Mar-25 09:32N 51°17' E 004°23'0 0.0
2017-Mar-25 08:32N 51°17' E 004°23'0 0.0
2017-Mar-25 07:32N 51°17' E 004°23'0 0.0
2017-Mar-25 06:29N 51°17' E 004°23'0 0.0
2017-Mar-25 05:32N 51°17' E 004°23'0 0.0
2017-Mar-25 04:32N 51°17' E 004°23'0 0.0
2017-Mar-25 03:32N 51°17' E 004°23'0 0.0
2017-Mar-25 02:32N 51°17' E 004°23'0 0.0
2017-Mar-25 01:33N 51°17' E 004°23'3 3.5
2017-Mar-25 00:33N 51°19' E 004°19'2 1.8
2017-Mar-24 23:33N 51°21' E 004°17'4 3.5
2017-Mar-24 22:33N 51°23' E 004°13'7 7.3
2017-Mar-24 21:33N 51°25' E 004°02'1010.1
2017-Mar-24 20:33N 51°21' E 003°47'1010.1
2017-Mar-24 19:33N 51°25' E 003°32'1414.0
2017-Mar-24 18:34N 51°24' E 003°09'9 8.6
2017-Mar-24 17:33N 51°32' E 003°07'1414.0
2017-Mar-24 16:33N 51°46' E 003°13'1412.4
2017-Mar-24 15:24N 51°60' E 003°20'1214.8
2017-Mar-24 14:33N 52°12' E 003°23'1514.3
2017-Mar-24 13:30N 52°27' E 003°28'2613.4
2017-Mar-24 11:32N 52°50' E 003°48'1414.5
2017-Mar-24 10:33N 53°00' E 004°04'1615.6
2017-Mar-24 09:33N 53°10' E 004°24'1815.7
2017-Mar-24 08:23N 53°27' E 004°37'1515.3
2017-Mar-24 07:26N 53°34' E 004°59'1514.8
2017-Mar-24 06:25N 53°39' E 005°23'1414.2
2017-Mar-24 05:28N 53°42' E 005°45'6913.9
2017-Mar-24 00:31N 53°59' E 007°38'1312.3
2017-Mar-23 23:30N 53°52' E 007°56'1314.0
2017-Mar-23 22:33N 53°44' E 008°14'1313.5
2017-Mar-23 21:33N 53°35' E 008°31'9 8.6
2017-Mar-23 20:33N 53°27' E 008°29'1010.2
2017-Mar-23 19:34N 53°17' E 008°29'8 7.6
2017-Mar-23 18:33N 53°10' E 008°36'6 6.0
2017-Mar-23 17:34N 53°07' E 008°44'1 0.8
2017-Mar-23 16:33N 53°06' E 008°45'0 0.0
2017-Mar-23 15:33N 53°06' E 008°45'0 0.0
2017-Mar-23 14:33N 53°06' E 008°45'0 0.0
2017-Mar-23 13:33N 53°06' E 008°45'0 0.0
2017-Mar-23 12:33N 53°06' E 008°45'0 0.0
2017-Mar-23 11:33N 53°06' E 008°45'0 0.0
2017-Mar-23 10:33N 53°06' E 008°45'0 0.0
2017-Mar-23 09:33N 53°06' E 008°45'0 0.0
2017-Mar-23 08:33N 53°06' E 008°45'0 0.0
2017-Mar-23 07:33N 53°06' E 008°45'0 0.0
2017-Mar-23 06:33N 53°06' E 008°45'0 0.0
2017-Mar-23 05:33N 53°06' E 008°45'0 0.0
2017-Mar-23 04:33N 53°06' E 008°45'0 0.0
2017-Mar-23 03:32N 53°06' E 008°45'0 0.0
2017-Mar-23 02:33N 53°06' E 008°45'0 0.0
2017-Mar-23 01:33N 53°06' E 008°45'0 0.0
2017-Mar-23 00:33N 53°06' E 008°45'0 0.0
2017-Mar-22 23:32N 53°06' E 008°45'0 0.0
2017-Mar-22 22:32N 53°06' E 008°45'0 0.0
2017-Mar-22 21:32N 53°06' E 008°45'0 0.0
2017-Mar-22 20:32N 53°06' E 008°45'0 0.0
2017-Mar-22 19:32N 53°06' E 008°45'0 0.0
2017-Mar-22 18:32N 53°06' E 008°45'0 0.0
2017-Mar-22 17:32N 53°06' E 008°45'0 0.1
2017-Mar-22 16:32N 53°06' E 008°45'0 0.0
2017-Mar-22 15:32N 53°06' E 008°45'0 0.0
2017-Mar-22 14:32N 53°06' E 008°45'0 0.0
2017-Mar-22 13:32N 53°06' E 008°45'0 0.0
2017-Mar-22 12:32N 53°06' E 008°45'0 0.0
2017-Mar-22 11:32N 53°06' E 008°45'0 0.0
2017-Mar-22 10:32N 53°06' E 008°45'0 0.0
2017-Mar-22 09:32N 53°06' E 008°45'0 0.0
2017-Mar-22 08:32N 53°06' E 008°45'0 0.0
2017-Mar-22 07:32N 53°06' E 008°45'0 0.0
2017-Mar-22 06:32N 53°06' E 008°45'0 0.0
2017-Mar-22 05:32N 53°06' E 008°45'0 0.0
2017-Mar-22 04:32N 53°06' E 008°45'0 0.0
2017-Mar-22 03:32N 53°06' E 008°45'0 0.0
2017-Mar-22 02:32N 53°06' E 008°45'0 0.0
2017-Mar-22 01:32N 53°06' E 008°45'0 0.0
2017-Mar-22 00:32N 53°06' E 008°45'0 0.0
2017-Mar-21 23:32N 53°06' E 008°45'0 0.0
2017-Mar-21 22:32N 53°06' E 008°45'0 0.0
2017-Mar-21 21:32N 53°06' E 008°45'0 0.0
2017-Mar-21 20:32N 53°06' E 008°45'0 0.0
2017-Mar-21 19:32N 53°06' E 008°45'0 0.1
2017-Mar-21 18:34N 53°06' E 008°45'5 4.6
2017-Mar-21 17:34N 53°08' E 008°38'9 8.6
2017-Mar-21 16:33N 53°15' E 008°29'1212.4
2017-Mar-21 15:33N 53°27' E 008°29'10 9.8
2017-Mar-21 14:33N 53°37' E 008°29'1616.3
2017-Mar-21 13:33N 53°48' E 008°08'1413.8
2017-Mar-21 12:33N 53°53' E 007°46'25814.4
2017-Mar-20 18:34N 54°26' E 000°29'1615.7
2017-Mar-20 17:33N 54°30' E 000°03'1615.6
2017-Mar-20 16:33N 54°34' W 000°24'  
Track history (hours):
 
Tides and Currents Weather Stations Pressure Air Temp Water Temp Dewpoint Dewpoint Depression Visibility Wind Speed Wind Dir Waves Ship Positions

Amber Lagoon

Last reported at 2017-Mar-26 02:33 UTC. Time now 2017-Mar-26 03:22 UTC.
Position N 51°17' E 004°23'.

Length 192 m; draft 8.6 m.

Type: Cargo ship. MMSI: 538090116.

Date/timePositionNaut miles runAvg speedWind from/ knotsBaromVisibWave heightAir tempDewpointWater temp
2017-Mar-26 02:33N 51°17' E 004°23'0 0.0
2017-Mar-26 01:32N 51°17' E 004°23'0 0.0
2017-Mar-26 00:32N 51°17' E 004°23'0 0.0
2017-Mar-25 23:29N 51°17' E 004°23'0 0.0
2017-Mar-25 22:32N 51°17' E 004°23'0 0.0
2017-Mar-25 21:32N 51°17' E 004°23'0 0.0
2017-Mar-25 20:32N 51°17' E 004°23'0 0.0
2017-Mar-25 19:32N 51°17' E 004°23'0 0.0
2017-Mar-25 18:29N 51°17' E 004°23'0 0.0
2017-Mar-25 17:32N 51°17' E 004°23'0 0.0
2017-Mar-25 16:32N 51°17' E 004°23'0 0.0
2017-Mar-25 15:32N 51°17' E 004°23'0 0.0
2017-Mar-25 14:32N 51°17' E 004°23'0 0.0
2017-Mar-25 13:32N 51°17' E 004°23'0 0.0
2017-Mar-25 12:32N 51°17' E 004°23'0 0.0
2017-Mar-25 11:32N 51°17' E 004°23'0 0.0
2017-Mar-25 10:32N 51°17' E 004°23'0 0.0
2017-Mar-25 09:32N 51°17' E 004°23'0 0.0
2017-Mar-25 08:32N 51°17' E 004°23'0 0.0
2017-Mar-25 07:32N 51°17' E 004°23'0 0.0
2017-Mar-25 06:29N 51°17' E 004°23'0 0.0
2017-Mar-25 05:32N 51°17' E 004°23'0 0.0
2017-Mar-25 04:32N 51°17' E 004°23'0 0.0
2017-Mar-25 03:32N 51°17' E 004°23'0 0.0
2017-Mar-25 02:32N 51°17' E 004°23'0 0.0
2017-Mar-25 01:33N 51°17' E 004°23'3 3.5
2017-Mar-25 00:33N 51°19' E 004°19'2 1.8
2017-Mar-24 23:33N 51°21' E 004°17'4 3.5
2017-Mar-24 22:33N 51°23' E 004°13'7 7.3
2017-Mar-24 21:33N 51°25' E 004°02'1010.1
2017-Mar-24 20:33N 51°21' E 003°47'1010.1
2017-Mar-24 19:33N 51°25' E 003°32'1414.0
2017-Mar-24 18:34N 51°24' E 003°09'9 8.6
2017-Mar-24 17:33N 51°32' E 003°07'1414.0
2017-Mar-24 16:33N 51°46' E 003°13'1412.4
2017-Mar-24 15:24N 51°60' E 003°20'1214.8
2017-Mar-24 14:33N 52°12' E 003°23'1514.3
2017-Mar-24 13:30N 52°27' E 003°28'2613.4
2017-Mar-24 11:32N 52°50' E 003°48'1414.5
2017-Mar-24 10:33N 53°00' E 004°04'1615.6
2017-Mar-24 09:33N 53°10' E 004°24'1815.7
2017-Mar-24 08:23N 53°27' E 004°37'1515.3
2017-Mar-24 07:26N 53°34' E 004°59'1514.8
2017-Mar-24 06:25N 53°39' E 005°23'1414.2
2017-Mar-24 05:28N 53°42' E 005°45'6913.9
2017-Mar-24 00:31N 53°59' E 007°38'1312.3
2017-Mar-23 23:30N 53°52' E 007°56'1314.0
2017-Mar-23 22:33N 53°44' E 008°14'1313.5
2017-Mar-23 21:33N 53°35' E 008°31'9 8.6
2017-Mar-23 20:33N 53°27' E 008°29'1010.2
2017-Mar-23 19:34N 53°17' E 008°29'8 7.6
2017-Mar-23 18:33N 53°10' E 008°36'6 6.0
2017-Mar-23 17:34N 53°07' E 008°44'1 0.8
2017-Mar-23 16:33N 53°06' E 008°45'0 0.0
2017-Mar-23 15:33N 53°06' E 008°45'0 0.0
2017-Mar-23 14:33N 53°06' E 008°45'0 0.0
2017-Mar-23 13:33N 53°06' E 008°45'0 0.0
2017-Mar-23 12:33N 53°06' E 008°45'0 0.0
2017-Mar-23 11:33N 53°06' E 008°45'0 0.0
2017-Mar-23 10:33N 53°06' E 008°45'0 0.0
2017-Mar-23 09:33N 53°06' E 008°45'0 0.0
2017-Mar-23 08:33N 53°06' E 008°45'0 0.0
2017-Mar-23 07:33N 53°06' E 008°45'0 0.0
2017-Mar-23 06:33N 53°06' E 008°45'0 0.0
2017-Mar-23 05:33N 53°06' E 008°45'0 0.0
2017-Mar-23 04:33N 53°06' E 008°45'0 0.0
2017-Mar-23 03:32N 53°06' E 008°45'0 0.0
2017-Mar-23 02:33N 53°06' E 008°45'0 0.0
2017-Mar-23 01:33N 53°06' E 008°45'0 0.0
2017-Mar-23 00:33N 53°06' E 008°45'0 0.0
2017-Mar-22 23:32N 53°06' E 008°45'0 0.0
2017-Mar-22 22:32N 53°06' E 008°45'0 0.0
2017-Mar-22 21:32N 53°06' E 008°45'0 0.0
2017-Mar-22 20:32N 53°06' E 008°45'0 0.0
2017-Mar-22 19:32N 53°06' E 008°45'0 0.0
2017-Mar-22 18:32N 53°06' E 008°45'0 0.0
2017-Mar-22 17:32N 53°06' E 008°45'0 0.1
2017-Mar-22 16:32N 53°06' E 008°45'0 0.0
2017-Mar-22 15:32N 53°06' E 008°45'0 0.0
2017-Mar-22 14:32N 53°06' E 008°45'0 0.0
2017-Mar-22 13:32N 53°06' E 008°45'0 0.0
2017-Mar-22 12:32N 53°06' E 008°45'0 0.0
2017-Mar-22 11:32N 53°06' E 008°45'0 0.0
2017-Mar-22 10:32N 53°06' E 008°45'0 0.0
2017-Mar-22 09:32N 53°06' E 008°45'0 0.0
2017-Mar-22 08:32N 53°06' E 008°45'0 0.0
2017-Mar-22 07:32N 53°06' E 008°45'0 0.0
2017-Mar-22 06:32N 53°06' E 008°45'0 0.0
2017-Mar-22 05:32N 53°06' E 008°45'0 0.0
2017-Mar-22 04:32N 53°06' E 008°45'0 0.0
2017-Mar-22 03:32N 53°06' E 008°45'0 0.0
2017-Mar-22 02:32N 53°06' E 008°45'0 0.0
2017-Mar-22 01:32N 53°06' E 008°45'0 0.0
2017-Mar-22 00:32N 53°06' E 008°45'0 0.0
2017-Mar-21 23:32N 53°06' E 008°45'0 0.0
2017-Mar-21 22:32N 53°06' E 008°45'0 0.0
2017-Mar-21 21:32N 53°06' E 008°45'0 0.0
2017-Mar-21 20:32N 53°06' E 008°45'0 0.0
2017-Mar-21 19:32N 53°06' E 008°45'0 0.1
2017-Mar-21 18:34N 53°06' E 008°45'5 4.6
2017-Mar-21 17:34N 53°08' E 008°38'9 8.6
2017-Mar-21 16:33N 53°15' E 008°29'1212.4
2017-Mar-21 15:33N 53°27' E 008°29'10 9.8
2017-Mar-21 14:33N 53°37' E 008°29'1616.3
2017-Mar-21 13:33N 53°48' E 008°08'1413.8
2017-Mar-21 12:33N 53°53' E 007°46'25814.4
2017-Mar-20 18:34N 54°26' E 000°29'1615.7
2017-Mar-20 17:33N 54°30' E 000°03'1615.6
2017-Mar-20 16:33N 54°34' W 000°24'  

Dump ship's entire track history